Time;durP1;ratioP1;P1;durP2;ratioP2;P2;SDS_P1;SDS_P2;PMS_P1;PMS_P2;Temp;Humidity;BMP_temperature;BMP_pressure;BME280_temperature;BME280_humidity;BME280_pressure;Samples;Min_cycle;Max_cycle;Signal;HPM_P1;HPM_P2
2022/06/30 00:01:54;;;;;;;32.08;19.48;;;;;;;20.59;97.68;101025.81;4997856;28;20030;-56
2022/06/30 00:04:20;;;;;;;31.52;19.08;;;;;;;20.59;98.47;101032.06;4996708;28;20165;-55
2022/06/30 00:06:45;;;;;;;30.83;18.30;;;;;;;20.53;97.14;101032.13;4997858;28;20451;-55
2022/06/30 00:09:10;;;;;;;32.33;18.77;;;;;;;20.51;97.91;101021.47;4976628;28;20056;-56
2022/06/30 00:11:35;;;;;;;29.50;18.23;;;;;;;20.45;96.23;101036.78;4998026;28;20129;-55
2022/06/30 00:14:01;;;;;;;33.78;19.08;;;;;;;20.40;95.87;101028.47;4996704;28;20032;-55
2022/06/30 00:16:26;;;;;;;27.80;18.50;;;;;;;20.38;96.23;101018.88;4997385;28;20017;-55
2022/06/30 00:18:52;;;;;;;31.27;18.00;;;;;;;20.30;95.48;101020.00;4996848;28;20030;-56
2022/06/30 00:21:17;;;;;;;30.77;18.10;;;;;;;20.27;94.80;101020.44;4997704;28;20047;-55
2022/06/30 00:23:42;;;;;;;25.65;17.23;;;;;;;20.21;93.58;101021.31;4996923;28;20042;-56
2022/06/30 00:26:08;;;;;;;27.42;17.35;;;;;;;20.22;95.46;101014.84;4997930;28;20120;-55
2022/06/30 00:28:33;;;;;;;24.75;17.33;;;;;;;20.21;94.35;101010.47;5000224;28;20102;-55
2022/06/30 00:30:58;;;;;;;27.08;18.10;;;;;;;20.20;93.84;101009.66;5001276;28;20028;-55
2022/06/30 00:33:24;;;;;;;24.55;17.63;;;;;;;20.13;94.17;100995.31;5000528;28;20044;-56
2022/06/30 00:35:50;;;;;;;28.55;18.10;;;;;;;20.11;94.37;101000.09;5000695;28;20022;-54
2022/06/30 00:38:15;;;;;;;29.15;18.25;;;;;;;20.06;94.37;100994.53;4999761;28;20034;-55
2022/06/30 00:40:43;;;;;;;28.70;18.58;;;;;;;20.06;93.27;100994.53;5001004;28;20022;-55
2022/06/30 00:43:09;;;;;;;31.65;18.90;;;;;;;20.03;93.56;101001.22;4999885;28;20049;-56
2022/06/30 00:45:46;;;;;;;27.77;18.02;;;;;;;20.00;93.28;101003.56;5000454;28;20037;-55
2022/06/30 00:48:12;;;;;;;27.08;18.40;;;;;;;20.04;95.76;100999.34;5000141;28;20017;-55
2022/06/30 00:50:38;;;;;;;33.72;18.70;;;;;;;20.04;94.37;100993.91;4999748;28;20575;-55
2022/06/30 00:53:06;;;;;;;27.42;17.90;;;;;;;20.02;94.18;100998.72;5000490;28;20113;-55
2022/06/30 00:55:32;;;;;;;29.17;18.45;;;;;;;20.03;94.01;100995.81;5000937;28;20029;-55
2022/06/30 00:58:00;;;;;;;32.83;18.38;;;;;;;20.02;94.29;100996.03;5000075;28;20416;-55
2022/06/30 01:00:28;;;;;;;28.63;18.17;;;;;;;20.01;93.98;101002.47;5000180;28;20025;-55
2022/06/30 01:02:54;;;;;;;32.45;18.65;;;;;;;20.03;93.93;101005.81;4999366;28;20045;-55
2022/06/30 01:05:21;;;;;;;30.88;18.45;;;;;;;20.07;92.58;101007.84;4999942;28;20512;-55
2022/06/30 01:07:47;;;;;;;27.45;18.23;;;;;;;20.10;94.20;101004.72;5000108;28;20017;-50
2022/06/30 01:12:57;;;;;;;32.40;18.02;;;;;;;20.16;93.72;101008.41;4999169;28;20076;-50
2022/06/30 01:15:22;;;;;;;29.23;18.65;;;;;;;20.12;92.98;101012.63;4999134;28;20439;-51
2022/06/30 01:17:50;;;;;;;29.05;17.90;;;;;;;20.14;93.19;101005.09;5000144;28;20018;-49
2022/06/30 01:20:18;;;;;;;31.70;18.92;;;;;;;20.12;94.36;101005.31;5000287;28;20555;-50
2022/06/30 01:22:44;;;;;;;30.05;19.23;;;;;;;20.10;94.58;101004.72;5000006;28;20045;-50
2022/06/30 01:25:10;;;;;;;31.67;18.60;;;;;;;20.09;93.77;101010.34;4999772;28;20119;-50
2022/06/30 01:27:35;;;;;;;32.30;19.75;;;;;;;20.07;95.12;101007.84;4999350;28;20042;-49
2022/06/30 01:30:02;;;;;;;33.13;19.55;;;;;;;20.04;94.58;101010.19;4981421;28;20347;-50
2022/06/30 01:32:29;;;;;;;31.63;19.73;;;;;;;19.99;95.18;101008.13;4999476;28;20057;-52
2022/06/30 01:34:56;;;;;;;32.70;20.48;;;;;;;19.94;95.18;101006.09;4986109;28;20037;-48
2022/06/30 01:37:21;;;;;;;30.15;19.85;;;;;;;19.91;95.36;101009.22;4998926;28;20109;-47
2022/06/30 01:39:46;;;;;;;36.97;20.27;;;;;;;19.88;94.63;101014.28;4999725;28;20108;-47
2022/06/30 01:42:12;;;;;;;41.53;20.58;;;;;;;19.83;94.51;101023.03;4998271;28;20030;-49
2022/06/30 01:44:37;;;;;;;36.60;21.65;;;;;;;19.82;95.48;101020.56;4998829;28;20110;-46
2022/06/30 01:47:03;;;;;;;36.40;22.08;;;;;;;19.80;94.40;101017.22;4999332;28;20187;-48
2022/06/30 01:49:28;;;;;;;32.50;21.05;;;;;;;19.70;95.30;101013.06;4999326;28;20026;-49
2022/06/30 01:51:54;;;;;;;32.10;20.27;;;;;;;19.71;96.12;101017.44;4999445;28;20120;-51
2022/06/30 01:54:20;;;;;;;37.97;21.60;;;;;;;19.63;96.93;101016.88;4995645;28;20514;-51
2022/06/30 01:56:45;;;;;;;36.72;21.02;;;;;;;19.60;97.25;101011.91;5018546;28;20125;-49
2022/06/30 01:59:11;;;;;;;32.67;21.42;;;;;;;19.58;97.35;101014.81;5011818;28;20118;-49
2022/06/30 02:01:36;;;;;;;33.20;21.77;;;;;;;19.56;97.93;101022.34;5019166;28;20032;-50
2022/06/30 02:06:47;;;;;;;35.38;20.92;;;;;;;19.48;97.80;101017.16;5019886;28;20116;-51
2022/06/30 02:09:12;;;;;;;33.20;22.23;;;;;;;19.45;98.52;101015.72;5006020;28;20030;-46
2022/06/30 02:11:37;;;;;;;38.25;22.00;;;;;;;19.40;98.21;101020.97;5017960;28;20520;-54
2022/06/30 02:14:03;;;;;;;34.35;22.42;;;;;;;19.35;98.27;101018.06;5019196;28;20561;-54
2022/06/30 02:16:28;;;;;;;45.13;23.30;;;;;;;19.30;98.62;101026.84;5001251;28;20025;-54
2022/06/30 02:18:53;;;;;;;39.72;23.25;;;;;;;19.27;98.60;101029.97;5017931;28;20026;-54
2022/06/30 02:21:19;;;;;;;32.85;22.50;;;;;;;19.30;100.00;101024.13;5018656;28;20056;-55
2022/06/30 02:23:45;;;;;;;37.28;23.42;;;;;;;19.26;100.00;101014.75;5014654;28;20105;-55
2022/06/30 02:26:10;;;;;;;39.72;22.48;;;;;;;19.21;99.69;101014.56;5012244;28;20411;-55
2022/06/30 02:28:35;;;;;;;37.55;23.75;;;;;;;19.17;100.00;101018.75;5018116;28;20044;-55
2022/06/30 02:31:01;;;;;;;41.38;23.67;;;;;;;19.12;100.00;101019.38;5018639;28;20346;-55
2022/06/30 02:33:26;;;;;;;39.15;23.27;;;;;;;19.08;100.00;101023.59;5017911;28;20079;-55
2022/06/30 02:35:51;;;;;;;39.22;23.55;;;;;;;19.04;100.00;101026.91;5018721;28;20615;-55
2022/06/30 02:38:17;;;;;;;41.25;24.42;;;;;;;18.99;99.95;101036.53;5000001;28;20098;-55
2022/06/30 02:40:42;;;;;;;38.50;24.10;;;;;;;18.95;100.00;101031.75;5017817;28;20063;-54
2022/06/30 02:43:08;;;;;;;43.60;24.40;;;;;;;18.85;100.00;101029.47;5016978;28;20026;-54
2022/06/30 02:45:33;;;;;;;41.75;24.55;;;;;;;18.84;100.00;101033.22;5018233;28;20041;-55
2022/06/30 02:47:59;;;;;;;38.33;25.08;;;;;;;18.78;100.00;101026.72;5009286;28;20058;-54
2022/06/30 02:50:24;;;;;;;40.78;25.77;;;;;;;18.72;100.00;101029.44;5007703;28;20144;-54
2022/06/30 02:52:49;;;;;;;41.22;25.63;;;;;;;18.68;100.00;101030.94;5018017;28;20018;-54
2022/06/30 02:55:15;;;;;;;41.30;25.35;;;;;;;18.67;100.00;101029.25;5018112;28;20403;-55
2022/06/30 02:57:41;;;;;;;39.28;25.75;;;;;;;18.67;100.00;101023.84;4998884;28;20064;-55
2022/06/30 03:00:09;;;;;;;41.00;25.05;;;;;;;18.62;100.00;101025.31;5005064;28;20057;-55
2022/06/30 03:02:35;;;;;;;38.95;25.75;;;;;;;18.63;100.00;101032.41;5016846;28;20033;-55
2022/06/30 03:05:01;;;;;;;40.50;26.92;;;;;;;18.59;100.00;101030.31;5018297;28;20105;-54
2022/06/30 03:07:26;;;;;;;43.05;25.63;;;;;;;18.60;100.00;101029.25;5017544;28;20045;-54
2022/06/30 03:09:52;;;;;;;43.85;26.50;;;;;;;18.58;100.00;101031.34;5008211;28;20400;-55
2022/06/30 03:12:17;;;;;;;49.30;27.63;;;;;;;18.54;100.00;101017.41;5016880;28;20018;-54
2022/06/30 03:14:43;;;;;;;55.35;28.52;;;;;;;18.51;100.00;101030.53;5017560;28;20022;-50
2022/06/30 03:17:08;;;;;;;52.03;27.55;;;;;;;18.43;100.00;101026.16;4999423;28;20021;-48
2022/06/30 03:19:34;;;;;;;45.97;28.60;;;;;;;18.40;100.00;101027.41;5017355;28;20024;-49
2022/06/30 03:21:59;;;;;;;50.75;28.75;;;;;;;18.35;100.00;101016.38;5018341;28;20141;-46
2022/06/30 03:24:24;;;;;;;64.78;30.42;;;;;;;18.29;100.00;101017.22;5009493;28;20129;-50
2022/06/30 03:26:50;;;;;;;55.72;30.45;;;;;;;18.26;100.00;101014.91;5016330;28;20403;-46
2022/06/30 03:29:15;;;;;;;52.58;30.30;;;;;;;18.17;100.00;101011.59;5017323;28;20470;-47
2022/06/30 03:31:40;;;;;;;53.88;30.38;;;;;;;18.17;100.00;101011.59;5017982;28;20033;-47
2022/06/30 03:34:05;;;;;;;54.83;30.42;;;;;;;18.16;100.00;101011.78;5016496;28;20116;-50
2022/06/30 03:36:31;;;;;;;66.30;31.08;;;;;;;18.10;100.00;101013.47;5017880;28;20131;-51
2022/06/30 03:38:56;;;;;;;57.63;31.80;;;;;;;18.12;100.00;101007.84;5017267;28;20041;-48
2022/06/30 03:41:21;;;;;;;57.10;29.67;;;;;;;18.11;100.00;101003.47;5016102;28;20077;-50
2022/06/30 03:43:47;;;;;;;47.15;30.20;;;;;;;18.11;100.00;101001.63;5010721;28;20048;-49
2022/06/30 03:46:12;;;;;;;49.88;30.23;;;;;;;18.15;100.00;101008.28;5010538;28;20018;-53
2022/06/30 03:48:38;;;;;;;51.05;31.77;;;;;;;18.13;100.00;101009.53;5016819;28;20124;-51
2022/06/30 03:51:04;;;;;;;46.55;30.58;;;;;;;18.06;100.00;101001.41;5017155;28;20469;-49
2022/06/30 03:53:30;;;;;;;54.80;32.15;;;;;;;18.14;100.00;101001.19;5017632;28;20018;-52
2022/06/30 03:55:56;;;;;;;51.97;31.08;;;;;;;18.16;100.00;101007.25;5017846;28;20155;-50
2022/06/30 03:58:22;;;;;;;47.50;30.40;;;;;;;18.16;100.00;101001.84;5015951;28;20089;-52
2022/06/30 04:00:47;;;;;;;49.38;31.15;;;;;;;18.16;100.00;100993.72;5017931;28;20411;-50
2022/06/30 04:03:13;;;;;;;52.20;31.17;;;;;;;18.17;100.00;100998.06;5020901;28;20104;-48
2022/06/30 04:05:40;;;;;;;50.75;32.88;;;;;;;18.20;100.00;100994.97;5021136;28;20459;-46
2022/06/30 04:08:06;;;;;;;46.45;30.85;;;;;;;18.24;100.00;100990.81;5017271;28;20030;-69
2022/06/30 04:10:31;;;;;;;46.15;31.45;;;;;;;18.28;100.00;100991.22;5014152;28;20032;-48
2022/06/30 04:12:56;;;;;;;50.60;31.58;;;;;;;18.31;100.00;100998.91;5019651;28;20158;-50
2022/06/30 04:15:22;;;;;;;53.15;31.13;;;;;;;18.34;100.00;100993.09;5020660;28;20132;-49
2022/06/30 04:17:47;;;;;;;48.30;33.53;;;;;;;18.37;100.00;100989.97;5002865;28;20083;-47
2022/06/30 04:20:16;;;;;;;50.58;32.08;;;;;;;18.39;100.00;100996.00;5020617;28;20049;-51
2022/06/30 04:22:43;;;;;;;48.65;32.13;;;;;;;18.40;100.00;100996.84;5020757;28;20033;-50
2022/06/30 04:25:09;;;;;;;51.10;32.17;;;;;;;18.42;100.00;100995.56;5013105;28;20072;-48
2022/06/30 04:27:34;;;;;;;51.05;33.05;;;;;;;18.43;100.00;100989.13;5001798;28;20519;-49
2022/06/30 04:30:00;;;;;;;51.45;33.83;;;;;;;18.47;100.00;100996.84;5020796;28;20119;-50
2022/06/30 04:32:40;;;;;;;47.55;31.88;;;;;;;18.43;100.00;100991.00;5020281;28;20164;-51
2022/06/30 04:35:11;;;;;;;48.55;33.50;;;;;;;18.40;100.00;100996.84;5019904;28;20040;-48
2022/06/30 04:37:37;;;;;;;55.13;34.22;;;;;;;18.26;100.00;101006.81;5013037;28;20022;-50
2022/06/30 04:42:47;;;;;;;52.78;34.90;;;;;;;18.12;100.00;101018.66;5020981;28;20526;-51
2022/06/30 04:45:13;;;;;;;62.83;36.17;;;;;;;18.08;100.00;101020.97;5020387;28;20025;-49
2022/06/30 04:47:38;;;;;;;58.17;36.35;;;;;;;18.04;100.00;101017.00;5020788;28;20432;-49
2022/06/30 04:50:04;;;;;;;61.55;35.78;;;;;;;18.08;100.00;101029.88;5019878;28;20037;-48
2022/06/30 04:52:33;;;;;;;58.30;36.50;;;;;;;18.07;100.00;101049.88;5020017;28;20175;-47
2022/06/30 04:54:58;;;;;;;51.90;33.83;;;;;;;18.01;100.00;101012.84;5020785;28;20040;-48
2022/06/30 04:57:23;;;;;;;49.20;33.15;;;;;;;18.03;100.00;101028.84;5019694;28;20878;-46
2022/06/30 04:59:49;;;;;;;53.30;33.22;;;;;;;18.00;100.00;101078.72;5019816;28;20025;-47
2022/06/30 05:02:14;;;;;;;48.22;32.55;;;;;;;17.98;100.00;101034.88;5019918;28;20538;-47
2022/06/30 05:04:42;;;;;;;49.78;31.65;;;;;;;17.95;100.00;101045.25;5019682;28;20383;-48
2022/06/30 05:07:07;;;;;;;53.10;33.45;;;;;;;17.98;100.00;101053.78;5019177;28;20033;-50
2022/06/30 05:09:32;;;;;;;51.40;33.92;;;;;;;17.93;100.00;101039.22;4999533;28;20009;-52
2022/06/30 05:11:57;;;;;;;54.17;35.20;;;;;;;17.89;100.00;101047.75;5019673;28;20116;-51
2022/06/30 05:14:23;;;;;;;51.95;35.40;;;;;;;17.92;100.00;101045.66;5018630;28;20025;-47
2022/06/30 05:16:48;;;;;;;57.63;37.65;;;;;;;17.94;100.00;101036.31;5020476;28;20016;-51
2022/06/30 05:19:13;;;;;;;61.58;37.47;;;;;;;17.97;100.00;101053.97;5019223;28;20153;-49
2022/06/30 05:21:39;;;;;;;65.72;38.58;;;;;;;17.92;100.00;101054.59;5020287;28;20030;-49
2022/06/30 05:26:48;;;;;;;61.38;40.33;;;;;;;18.08;100.00;101050.69;4994779;28;20100;-50
2022/06/30 05:29:14;;;;;;;66.50;40.78;;;;;;;18.17;100.00;101051.31;5000983;28;20030;-50
2022/06/30 05:31:40;;;;;;;61.50;41.28;;;;;;;18.24;100.00;101050.31;4985477;28;20010;-49
2022/06/30 05:34:06;;;;;;;62.15;40.28;;;;;;;18.31;100.00;101054.84;5018134;28;20029;-47
2022/06/30 05:36:31;;;;;;;71.50;42.25;;;;;;;18.32;100.00;101054.66;5019724;28;20021;-47
2022/06/30 05:38:56;;;;;;;64.15;44.28;;;;;;;18.31;100.00;101052.97;5019156;28;20155;-47
2022/06/30 05:41:22;;;;;;;61.50;42.95;;;;;;;18.39;100.00;101049.25;5018608;28;20044;-49
2022/06/30 05:43:47;;;;;;;71.00;43.88;;;;;;;18.43;100.00;101061.31;5019730;28;20100;-50
2022/06/30 05:46:12;;;;;;;79.13;44.45;;;;;;;18.49;100.00;101046.97;5019418;28;20040;-50
2022/06/30 05:48:38;;;;;;;69.53;43.75;;;;;;;18.51;100.00;101052.16;5019042;28;20020;-51
2022/06/30 05:51:03;;;;;;;69.75;42.25;;;;;;;18.52;100.00;101049.25;5018197;28;20033;-50
2022/06/30 05:53:29;;;;;;;65.05;43.08;;;;;;;18.49;100.00;101055.06;5000898;28;20421;-49
2022/06/30 05:55:54;;;;;;;67.35;41.17;;;;;;;18.48;100.00;101053.41;4992476;28;20040;-52
2022/06/30 05:58:19;;;;;;;64.78;42.08;;;;;;;18.50;100.00;101048.63;4995818;28;20101;-50
2022/06/30 06:00:45;;;;;;;68.60;43.13;;;;;;;18.49;100.00;101056.97;4996912;28;20025;-50
2022/06/30 06:03:10;;;;;;;70.88;42.38;;;;;;;18.49;100.00;101059.66;4994622;28;20026;-51
2022/06/30 06:05:35;;;;;;;72.95;42.78;;;;;;;18.58;100.00;101056.50;5002203;28;20749;-46
2022/06/30 06:08:08;;;;;;;63.83;39.83;;;;;;;18.67;100.00;101053.59;4995929;28;20146;-45
2022/06/30 06:10:34;;;;;;;62.92;38.78;;;;;;;18.78;100.00;101055.69;4998885;28;20022;-49
2022/06/30 06:12:59;;;;;;;62.97;38.17;;;;;;;18.83;100.00;101062.16;4997618;28;20024;-48
2022/06/30 06:15:24;;;;;;;59.45;37.03;;;;;;;18.83;100.00;101053.19;4998565;28;20384;-49
2022/06/30 06:17:50;;;;;;;63.92;34.80;;;;;;;18.85;100.00;101061.94;4999166;28;20034;-50
2022/06/30 06:20:17;;;;;;;56.95;30.85;;;;;;;18.88;100.00;101072.34;4995067;28;20037;-48
2022/06/30 06:22:44;;;;;;;54.00;31.50;;;;;;;18.85;100.00;101066.53;5002360;28;20037;-46
2022/06/30 06:25:11;;;;;;;56.15;31.08;;;;;;;18.91;100.00;101066.50;5005253;28;20392;-52
2022/06/30 06:27:37;;;;;;;56.35;29.33;;;;;;;19.01;100.00;101075.03;4997603;28;20022;-48
2022/06/30 06:30:04;;;;;;;52.78;27.75;;;;;;;19.16;100.00;101071.22;4993866;28;20029;-51
2022/06/30 06:32:30;;;;;;;44.78;26.23;;;;;;;19.26;100.00;101076.22;4998832;28;20713;-49
2022/06/30 06:34:55;;;;;;;53.97;25.42;;;;;;;19.37;100.00;101079.09;4996889;28;20152;-47
2022/06/30 06:37:21;;;;;;;46.25;24.50;;;;;;;19.44;100.00;101073.66;4996020;28;20125;-50
2022/06/30 06:39:46;;;;;;;43.08;23.27;;;;;;;19.54;100.00;101065.91;4997984;28;20030;-48
2022/06/30 06:42:11;;;;;;;51.83;23.98;;;;;;;19.66;100.00;101074.19;5010643;28;20092;-46
2022/06/30 06:44:36;;;;;;;45.85;24.50;;;;;;;19.77;100.00;101071.88;5001922;28;20022;-48
2022/06/30 06:47:02;;;;;;;46.45;22.98;;;;;;;19.80;100.00;101077.69;4997971;28;20037;-48
2022/06/30 06:49:27;;;;;;;42.97;22.15;;;;;;;19.77;100.00;101085.41;4996492;28;20497;-47
2022/06/30 06:51:53;;;;;;;48.50;23.02;;;;;;;19.95;100.00;101088.25;5004132;28;20033;-47
2022/06/30 06:54:18;;;;;;;39.53;21.20;;;;;;;19.99;100.00;101085.91;4996008;28;20232;-48
2022/06/30 06:56:43;;;;;;;43.70;20.85;;;;;;;20.09;100.00;101092.50;5004338;28;20391;-47
2022/06/30 06:59:09;;;;;;;34.80;19.15;;;;;;;20.16;100.00;101095.19;5010010;28;20083;-51
2022/06/30 07:01:34;;;;;;;37.17;19.30;;;;;;;20.18;100.00;101090.41;5008175;28;20599;-55
2022/06/30 07:03:59;;;;;;;37.67;17.98;;;;;;;20.23;100.00;101093.28;5017927;28;20022;-50
2022/06/30 07:06:25;;;;;;;38.42;16.40;;;;;;;20.20;100.00;101099.13;5016740;28;20105;-50
2022/06/30 07:08:50;;;;;;;36.53;16.25;;;;;;;20.31;100.00;101094.88;5007533;28;20514;-49
2022/06/30 07:11:16;;;;;;;35.35;16.52;;;;;;;20.33;100.00;101102.81;5014067;28;20361;-47
2022/06/30 07:13:41;;;;;;;35.55;15.15;;;;;;;20.33;100.00;101110.94;5016872;28;20034;-51
2022/06/30 07:16:06;;;;;;;40.28;15.63;;;;;;;20.34;100.00;101110.72;5005926;28;20473;-51
2022/06/30 07:18:32;;;;;;;32.60;13.77;;;;;;;20.48;100.00;101115.03;4998545;28;20055;-48
2022/06/30 07:20:57;;;;;;;41.05;14.10;;;;;;;20.58;100.00;101117.22;4997178;28;20530;-48
2022/06/30 07:23:23;;;;;;;31.98;13.52;;;;;;;20.71;100.00;101121.75;4997028;28;20068;-50
2022/06/30 07:25:48;;;;;;;30.98;13.63;;;;;;;20.75;100.00;101125.66;4998552;28;20380;-51
2022/06/30 07:28:13;;;;;;;31.23;13.25;;;;;;;20.80;99.82;101128.53;4997930;28;20018;-51
2022/06/30 07:30:39;;;;;;;34.97;14.15;;;;;;;20.85;100.00;101126.00;5002058;28;20051;-51
2022/06/30 07:33:04;;;;;;;40.70;13.52;;;;;;;20.96;100.00;101127.16;5000102;28;20422;-50
2022/06/30 07:35:29;;;;;;;36.92;14.30;;;;;;;20.73;99.26;101138.63;4997270;28;20445;-50
2022/06/30 07:37:55;;;;;;;32.42;12.80;;;;;;;20.81;98.13;101138.38;5000054;28;20333;-50
2022/06/30 07:40:20;;;;;;;32.05;12.00;;;;;;;20.90;96.43;101138.09;5001599;28;20044;-53
2022/06/30 07:42:45;;;;;;;31.48;11.52;;;;;;;20.97;96.85;101130.72;5000409;28;20026;-50
2022/06/30 07:45:11;;;;;;;25.88;10.55;;;;;;;21.14;99.12;101145.38;5011120;28;20029;-52
2022/06/30 07:47:39;;;;;;;23.92;10.45;;;;;;;21.32;97.78;101135.59;5001051;28;20016;-51
2022/06/30 07:50:05;;;;;;;21.20;9.63;;;;;;;21.50;94.00;101141.03;5001401;28;20080;-51
2022/06/30 07:52:30;;;;;;;28.35;9.55;;;;;;;21.51;87.64;101141.88;5001682;28;20025;-50
2022/06/30 07:54:55;;;;;;;27.42;9.05;;;;;;;21.60;89.72;101146.78;5004654;28;20127;-50
2022/06/30 07:57:21;;;;;;;17.27;8.00;;;;;;;21.73;90.14;101142.25;4999785;28;20473;-49
2022/06/30 07:59:46;;;;;;;25.42;8.50;;;;;;;21.73;86.30;101148.50;5002095;28;20030;-51
2022/06/30 08:02:12;;;;;;;23.52;8.90;;;;;;;21.78;85.82;101150.56;5015450;28;20033;-52
2022/06/30 08:04:38;;;;;;;27.23;8.40;;;;;;;21.88;86.18;101141.88;5021491;28;20694;-52
2022/06/30 08:07:04;;;;;;;23.52;8.93;;;;;;;22.05;84.28;101150.22;5020362;28;20033;-55
2022/06/30 08:09:30;;;;;;;19.45;8.05;;;;;;;22.16;83.39;101147.50;5011891;28;20490;-51
2022/06/30 08:11:55;;;;;;;17.42;7.10;;;;;;;22.19;81.73;101145.41;5019410;28;20387;-49
2022/06/30 08:14:22;;;;;;;24.75;8.00;;;;;;;22.26;82.62;101135.25;5020743;28;20009;-51
2022/06/30 08:16:47;;;;;;;20.92;7.28;;;;;;;22.33;80.63;101141.47;5019672;28;20028;-50
2022/06/30 08:19:13;;;;;;;20.58;6.72;;;;;;;22.36;80.34;101143.72;5018803;28;20017;-49
2022/06/30 08:21:38;;;;;;;19.23;7.25;;;;;;;22.44;79.66;101139.84;5019768;28;20128;-50
2022/06/30 08:24:03;;;;;;;20.52;6.13;;;;;;;22.56;79.78;101135.25;5019829;28;20051;-49
2022/06/30 08:26:30;;;;;;;20.33;6.90;;;;;;;22.77;76.20;101144.75;5009111;28;20295;-48
2022/06/30 08:28:56;;;;;;;14.65;6.28;;;;;;;22.87;75.09;101142.25;5014472;28;20026;-50
2022/06/30 08:31:21;;;;;;;24.58;5.75;;;;;;;23.00;74.96;101143.94;5017304;28;20310;-49
2022/06/30 08:33:50;;;;;;;23.63;5.95;;;;;;;23.07;74.27;101147.41;5007623;28;20061;-49
2022/06/30 08:36:15;;;;;;;18.30;6.10;;;;;;;23.03;75.08;101148.91;5004823;28;20022;-49
2022/06/30 08:38:40;;;;;;;16.60;6.95;;;;;;;23.09;75.44;101150.69;5000541;28;20689;-52
2022/06/30 08:43:50;;;;;;;19.52;6.68;;;;;;;23.24;76.80;101143.97;5000617;28;20470;-49
2022/06/30 08:46:18;;;;;;;24.48;6.90;;;;;;;23.27;75.09;101138.84;5000512;28;20030;-53
2022/06/30 08:48:43;;;;;;;24.65;7.43;;;;;;;23.30;73.66;101145.72;4999378;28;20029;-52
2022/06/30 08:51:13;;;;;;;26.30;6.78;;;;;;;23.41;74.85;101150.31;4981206;28;20029;-52
2022/06/30 08:53:45;;;;;;;23.13;7.03;;;;;;;23.48;74.23;101146.66;4999628;28;20501;-52
2022/06/30 08:56:12;;;;;;;22.98;6.22;;;;;;;23.54;71.97;101151.13;5015301;28;20968;-53
2022/06/30 08:58:38;;;;;;;24.88;7.10;;;;;;;23.52;72.56;101151.38;5013837;28;20566;-52
2022/06/30 09:01:05;;;;;;;20.05;6.65;;;;;;;23.61;71.52;101141.75;5004255;28;20021;-52
2022/06/30 09:03:31;;;;;;;16.88;6.30;;;;;;;23.71;70.40;101143.03;5019778;28;20072;-52
2022/06/30 09:05:56;;;;;;;15.63;6.03;;;;;;;23.83;72.34;101146.59;5019097;28;20048;-52
2022/06/30 09:08:22;;;;;;;20.52;6.10;;;;;;;23.84;69.50;101148.25;5013291;28;20014;-52
2022/06/30 09:10:50;;;;;;;23.38;6.30;;;;;;;23.89;72.16;101153.78;5015075;28;20029;-51
2022/06/30 09:13:16;;;;;;;15.40;5.70;;;;;;;23.90;67.71;101157.38;5019244;28;20175;-52
2022/06/30 09:15:41;;;;;;;18.75;5.00;;;;;;;23.93;67.57;101146.78;5005667;28;20508;-52
2022/06/30 09:18:07;;;;;;;18.15;5.38;;;;;;;24.21;72.14;101136.94;4994519;28;20110;-49
2022/06/30 09:20:35;;;;;;;16.20;5.93;;;;;;;24.20;71.12;101157.09;4991648;28;20041;-49
2022/06/30 09:23:00;;;;;;;21.70;5.57;;;;;;;24.17;67.26;101150.25;4998704;28;20043;-55
2022/06/30 09:25:32;;;;;;;18.52;6.32;;;;;;;24.20;67.14;101157.94;4998435;28;20549;-55
2022/06/30 09:27:58;;;;;;;20.55;7.15;;;;;;;24.00;68.21;101161.13;4999675;28;20030;-54
2022/06/30 09:30:24;;;;;;;17.90;6.30;;;;;;;24.09;67.72;101160.72;4998930;28;20036;-55
2022/06/30 09:33:11;;;;;;;21.92;5.60;;;;;;;24.06;66.97;101164.75;4998635;28;20022;-55
2022/06/30 09:35:38;;;;;;;17.40;6.43;;;;;;;24.00;64.82;101166.56;4998108;28;20065;-55
2022/06/30 09:38:09;;;;;;;19.52;5.65;;;;;;;24.12;67.72;101165.72;4999168;28;20346;-55
2022/06/30 09:41:00;;;;;;;15.35;5.80;;;;;;;24.33;70.19;101164.16;4998527;28;20022;-54
2022/06/30 09:43:34;;;;;;;20.95;5.78;;;;;;;24.52;67.62;101159.31;4999096;28;20129;-56
2022/06/30 09:46:00;;;;;;;20.65;5.97;;;;;;;24.64;67.57;101167.47;4998997;28;20034;-56
2022/06/30 09:48:31;;;;;;;15.55;5.80;;;;;;;24.93;67.93;101166.31;4998508;28;20032;-54
2022/06/30 09:51:01;;;;;;;21.58;5.97;;;;;;;24.99;67.87;101169.94;5010676;28;20186;-56
2022/06/30 09:53:27;;;;;;;25.80;6.20;;;;;;;24.93;67.88;101157.28;5001741;28;20528;-56
2022/06/30 09:55:52;;;;;;;16.15;4.95;;;;;;;24.91;66.80;101153.97;4980474;28;20493;-55
2022/06/30 09:58:30;;;;;;;22.15;6.32;;;;;;;25.07;66.17;101161.34;4997387;28;20084;-55
2022/06/30 10:00:55;;;;;;;19.02;5.72;;;;;;;25.33;68.36;101163.66;5003200;28;20440;-55
2022/06/30 10:03:22;;;;;;;17.65;5.90;;;;;;;25.27;62.88;101165.47;5018242;28;20059;-55
2022/06/30 10:05:50;;;;;;;18.13;5.80;;;;;;;25.25;63.36;101160.22;5018714;28;20026;-56
2022/06/30 10:08:17;;;;;;;18.05;5.50;;;;;;;25.55;64.41;101175.41;5018583;28;20021;-56
2022/06/30 10:10:43;;;;;;;21.10;5.95;;;;;;;25.63;60.63;101183.19;5012831;28;20410;-55
2022/06/30 10:13:27;;;;;;;17.13;5.85;;;;;;;25.87;63.79;101172.81;5017734;28;20460;-55
2022/06/30 10:15:54;;;;;;;27.52;6.18;;;;;;;25.99;60.80;101172.69;5017787;28;20227;-55
2022/06/30 10:18:27;;;;;;;20.75;5.80;;;;;;;26.04;60.49;101174.69;5018189;28;20021;-55
2022/06/30 10:20:53;;;;;;;16.95;5.43;;;;;;;26.23;59.29;101177.88;5017743;28;20033;-55
2022/06/30 10:23:20;;;;;;;18.05;6.28;;;;;;;26.18;59.56;101173.19;5017378;28;20049;-56
2022/06/30 10:25:47;;;;;;;24.17;6.30;;;;;;;26.18;58.94;101181.38;5017954;28;20132;-55
2022/06/30 10:28:15;;;;;;;19.23;6.35;;;;;;;26.31;60.53;101174.69;4999393;28;20093;-55
2022/06/30 10:30:50;;;;;;;15.68;5.85;;;;;;;26.48;60.66;101169.09;5018139;28;20888;-55
2022/06/30 10:33:28;;;;;;;39.25;7.15;;;;;;;26.47;59.42;101163.88;5017859;28;20021;-55
2022/06/30 10:36:07;;;;;;;17.25;5.55;;;;;;;26.62;59.41;101155.78;5017812;28;20396;-55
2022/06/30 10:38:46;;;;;;;15.05;6.10;;;;;;;26.72;58.86;101161.38;5018221;28;20025;-55
2022/06/30 10:41:17;;;;;;;18.95;5.22;;;;;;;26.83;56.40;101154.06;5016371;28;20033;-55
2022/06/30 10:44:04;;;;;;;17.27;4.97;;;;;;;26.74;57.17;101164.69;4991860;28;20577;-56
2022/06/30 10:46:56;;;;;;;18.42;5.78;;;;;;;26.25;57.78;101160.09;5017237;28;20555;-55
2022/06/30 10:49:24;;;;;;;17.52;5.25;;;;;;;26.04;57.95;101167.28;5014642;28;20048;-56
2022/06/30 10:51:51;;;;;;;18.77;5.07;;;;;;;26.00;56.70;101157.09;4989985;28;20041;-56
2022/06/30 10:54:34;;;;;;;16.52;4.13;;;;;;;26.47;61.04;101158.41;5003776;28;20037;-55
2022/06/30 10:57:01;;;;;;;14.63;5.68;;;;;;;26.66;57.82;101156.13;5002647;28;20464;-55
2022/06/30 10:59:37;;;;;;;19.13;6.32;;;;;;;26.86;58.81;101156.28;4999128;28;20180;-56
2022/06/30 11:02:11;;;;;;;25.17;5.70;;;;;;;26.93;59.93;101154.13;5012045;28;20546;-55
2022/06/30 11:04:44;;;;;;;12.57;4.72;;;;;;;27.02;56.34;101153.66;4975020;28;20095;-56
2022/06/30 11:07:18;;;;;;;14.80;5.20;;;;;;;27.28;57.49;101155.50;5018064;28;20029;-57
2022/06/30 11:09:43;;;;;;;15.52;5.68;;;;;;;27.14;53.74;101149.63;4993068;28;20071;-55
2022/06/30 11:12:09;;;;;;;19.07;5.27;;;;;;;27.07;56.14;101154.53;5015705;28;20063;-56
2022/06/30 11:14:35;;;;;;;16.42;5.18;;;;;;;27.03;56.03;101156.13;4999480;28;20643;-55
2022/06/30 11:17:13;;;;;;;25.20;6.35;;;;;;;26.75;54.54;101163.59;5007413;28;20061;-56
2022/06/30 11:19:38;;;;;;;14.90;5.03;;;;;;;26.45;56.02;101155.91;4998913;28;20604;-56
2022/06/30 11:22:05;;;;;;;13.30;5.07;;;;;;;26.06;56.53;101151.44;4997678;28;20110;-55